sensor_id;sensor_type;location;lat;lon;timestamp;pressure;altitude;pressure_sealevel;temperature;humidity
55466;BME280;41329;41.594;23.810;2023-09-12T00:01:57;95453.50;;;16.88;45.79
55466;BME280;41329;41.594;23.810;2023-09-12T00:04:22;95443.97;;;16.82;45.70
55466;BME280;41329;41.594;23.810;2023-09-12T00:06:48;95435.22;;;16.80;45.71
55466;BME280;41329;41.594;23.810;2023-09-12T00:09:14;95430.47;;;16.70;45.87
55466;BME280;41329;41.594;23.810;2023-09-12T00:11:39;95457.97;;;16.75;45.87
55466;BME280;41329;41.594;23.810;2023-09-12T00:14:04;95462.78;;;16.71;46.34
55466;BME280;41329;41.594;23.810;2023-09-12T00:16:30;95462.81;;;16.68;46.60
55466;BME280;41329;41.594;23.810;2023-09-12T00:18:55;95456.44;;;16.64;46.38
55466;BME280;41329;41.594;23.810;2023-09-12T00:21:20;95456.03;;;16.65;46.33
55466;BME280;41329;41.594;23.810;2023-09-12T00:23:46;95466.44;;;16.61;45.90
55466;BME280;41329;41.594;23.810;2023-09-12T00:26:12;95463.66;;;16.61;46.17
55466;BME280;41329;41.594;23.810;2023-09-12T00:28:37;95446.53;;;16.52;46.54
55466;BME280;41329;41.594;23.810;2023-09-12T00:31:03;95461.25;;;16.63;46.60
55466;BME280;41329;41.594;23.810;2023-09-12T00:33:29;95460.88;;;16.58;46.93
55466;BME280;41329;41.594;23.810;2023-09-12T00:35:54;95453.69;;;16.57;46.66
55466;BME280;41329;41.594;23.810;2023-09-12T00:38:20;95460.47;;;16.56;46.01
55466;BME280;41329;41.594;23.810;2023-09-12T00:40:45;95447.38;;;16.46;46.15
55466;BME280;41329;41.594;23.810;2023-09-12T00:43:10;95468.44;;;16.57;46.15
55466;BME280;41329;41.594;23.810;2023-09-12T00:45:36;95465.34;;;16.41;45.98
55466;BME280;41329;41.594;23.810;2023-09-12T00:48:04;95456.16;;;16.34;46.45
55466;BME280;41329;41.594;23.810;2023-09-12T00:50:30;95461.31;;;16.39;46.20
55466;BME280;41329;41.594;23.810;2023-09-12T00:52:57;95470.50;;;16.36;46.84
55466;BME280;41329;41.594;23.810;2023-09-12T00:55:23;95465.34;;;16.34;47.17
55466;BME280;41329;41.594;23.810;2023-09-12T00:57:49;95446.66;;;16.21;47.14
55466;BME280;41329;41.594;23.810;2023-09-12T01:00:15;95473.72;;;16.31;47.41
55466;BME280;41329;41.594;23.810;2023-09-12T01:02:43;95476.53;;;16.27;47.57
55466;BME280;41329;41.594;23.810;2023-09-12T01:05:13;95473.34;;;16.25;47.56
55466;BME280;41329;41.594;23.810;2023-09-12T01:07:41;95461.00;;;16.19;46.96
55466;BME280;41329;41.594;23.810;2023-09-12T01:10:08;95471.81;;;16.17;47.11
55466;BME280;41329;41.594;23.810;2023-09-12T01:12:33;95460.28;;;16.01;47.31
55466;BME280;41329;41.594;23.810;2023-09-12T01:14:59;95469.47;;;15.95;47.51
55466;BME280;41329;41.594;23.810;2023-09-12T01:17:25;95477.44;;;15.93;48.15
55466;BME280;41329;41.594;23.810;2023-09-12T01:19:51;95478.25;;;15.93;48.50
55466;BME280;41329;41.594;23.810;2023-09-12T01:22:45;95474.69;;;15.68;48.69
55466;BME280;41329;41.594;23.810;2023-09-12T01:27:50;95480.28;;;15.61;48.73
55466;BME280;41329;41.594;23.810;2023-09-12T01:30:18;95484.25;;;15.64;48.40
55466;BME280;41329;41.594;23.810;2023-09-12T01:32:45;95480.28;;;15.61;48.87
55466;BME280;41329;41.594;23.810;2023-09-12T01:35:11;95466.34;;;15.47;48.59
55466;BME280;41329;41.594;23.810;2023-09-12T01:37:36;95487.47;;;15.48;48.73
55466;BME280;41329;41.594;23.810;2023-09-12T01:40:02;95474.31;;;15.45;48.98
55466;BME280;41329;41.594;23.810;2023-09-12T01:42:34;95475.13;;;15.42;49.33
55466;BME280;41329;41.594;23.810;2023-09-12T01:45:01;95466.75;;;15.35;49.37
55466;BME280;41329;41.594;23.810;2023-09-12T01:47:27;95473.09;;;15.32;48.96
55466;BME280;41329;41.594;23.810;2023-09-12T01:49:56;95483.84;;;15.30;48.68
55466;BME280;41329;41.594;23.810;2023-09-12T01:52:22;95470.69;;;15.20;48.95
55466;BME280;41329;41.594;23.810;2023-09-12T01:54:49;95481.44;;;15.22;49.25
55466;BME280;41329;41.594;23.810;2023-09-12T01:57:16;95473.47;;;15.06;49.46
55466;BME280;41329;41.594;23.810;2023-09-12T01:59:42;95481.03;;;14.99;49.51
55466;BME280;41329;41.594;23.810;2023-09-12T02:02:07;95494.56;;;15.07;50.22
55466;BME280;41329;41.594;23.810;2023-09-12T02:04:33;95490.59;;;15.05;50.28
55466;BME280;41329;41.594;23.810;2023-09-12T02:06:58;95487.41;;;14.99;50.15
55466;BME280;41329;41.594;23.810;2023-09-12T02:09:24;95489.38;;;14.95;50.37
55466;BME280;41329;41.594;23.810;2023-09-12T02:11:50;95492.94;;;14.89;50.41
55466;BME280;41329;41.594;23.810;2023-09-12T02:14:16;95492.56;;;14.90;50.66
55466;BME280;41329;41.594;23.810;2023-09-12T02:16:43;95492.97;;;14.92;50.99
55466;BME280;41329;41.594;23.810;2023-09-12T02:19:09;95481.41;;;14.90;51.07
55466;BME280;41329;41.594;23.810;2023-09-12T02:21:34;95491.78;;;14.93;50.86
55466;BME280;41329;41.594;23.810;2023-09-12T02:23:59;95492.59;;;14.97;50.68
55466;BME280;41329;41.594;23.810;2023-09-12T02:26:25;95501.34;;;14.99;50.72
55466;BME280;41329;41.594;23.810;2023-09-12T02:28:50;95499.75;;;14.98;50.86
55466;BME280;41329;41.594;23.810;2023-09-12T02:31:15;95491.38;;;14.98;51.14
55466;BME280;41329;41.594;23.810;2023-09-12T02:33:42;95493.78;;;14.96;51.33
55466;BME280;41329;41.594;23.810;2023-09-12T02:36:07;95485.41;;;14.93;51.10
55466;BME280;41329;41.594;23.810;2023-09-12T02:38:33;95499.34;;;15.00;51.07
55466;BME280;41329;41.594;23.810;2023-09-12T02:40:58;95494.16;;;14.98;51.24
55466;BME280;41329;41.594;23.810;2023-09-12T02:43:24;95502.94;;;15.00;50.95
55466;BME280;41329;41.594;23.810;2023-09-12T02:45:49;95502.94;;;15.00;51.09
55466;BME280;41329;41.594;23.810;2023-09-12T02:48:15;95504.13;;;14.99;51.23
55466;BME280;41329;41.594;23.810;2023-09-12T02:50:40;95500.13;;;14.97;51.14
55466;BME280;41329;41.594;23.810;2023-09-12T02:53:05;95503.72;;;14.97;51.36
55466;BME280;41329;41.594;23.810;2023-09-12T02:55:32;95494.56;;;14.90;51.33
55466;BME280;41329;41.594;23.810;2023-09-12T02:57:57;95508.09;;;14.98;51.01
55466;BME280;41329;41.594;23.810;2023-09-12T03:00:23;95499.34;;;14.89;50.72
55466;BME280;41329;41.594;23.810;2023-09-12T03:02:48;95514.06;;;14.93;51.24
55466;BME280;41329;41.594;23.810;2023-09-12T03:05:13;95505.28;;;14.88;51.28
55466;BME280;41329;41.594;23.810;2023-09-12T03:07:39;95516.47;;;14.91;50.83
55466;BME280;41329;41.594;23.810;2023-09-12T03:10:05;95518.03;;;14.89;51.08
55466;BME280;41329;41.594;23.810;2023-09-12T03:12:30;95506.41;;;14.55;51.39
55466;BME280;41329;41.594;23.810;2023-09-12T03:14:56;95510.38;;;14.61;51.57
55466;BME280;41329;41.594;23.810;2023-09-12T03:17:21;95514.41;;;14.67;51.91
55466;BME280;41329;41.594;23.810;2023-09-12T03:19:47;95503.66;;;14.62;51.95
55466;BME280;41329;41.594;23.810;2023-09-12T03:22:12;95516.00;;;14.72;52.02
55466;BME280;41329;41.594;23.810;2023-09-12T03:24:37;95516.41;;;14.70;51.78
55466;BME280;41329;41.594;23.810;2023-09-12T03:27:03;95521.19;;;14.66;51.77
55466;BME280;41329;41.594;23.810;2023-09-12T03:29:29;95515.97;;;14.61;51.88
55466;BME280;41329;41.594;23.810;2023-09-12T03:31:54;95521.94;;;14.60;52.12
55466;BME280;41329;41.594;23.810;2023-09-12T03:34:19;95505.22;;;14.49;51.77
55466;BME280;41329;41.594;23.810;2023-09-12T03:36:45;95509.94;;;14.38;51.68
55466;BME280;41329;41.594;23.810;2023-09-12T03:39:10;95523.84;;;14.38;52.51
55466;BME280;41329;41.594;23.810;2023-09-12T03:41:38;95522.59;;;14.25;52.95
55466;BME280;41329;41.594;23.810;2023-09-12T03:44:04;95531.72;;;14.22;53.03
55466;BME280;41329;41.594;23.810;2023-09-12T03:46:29;95525.31;;;14.18;53.63
55466;BME280;41329;41.594;23.810;2023-09-12T03:48:55;95528.47;;;14.13;54.14
55466;BME280;41329;41.594;23.810;2023-09-12T03:51:20;95515.69;;;14.02;53.87
55466;BME280;41329;41.594;23.810;2023-09-12T03:53:45;95508.84;;;13.89;53.85
55466;BME280;41329;41.594;23.810;2023-09-12T03:56:13;95526.38;;;13.96;53.39
55466;BME280;41329;41.594;23.810;2023-09-12T03:58:40;95527.13;;;13.90;54.07
55466;BME280;41329;41.594;23.810;2023-09-12T04:01:05;95522.72;;;13.82;54.30
55466;BME280;41329;41.594;23.810;2023-09-12T04:03:30;95526.31;;;13.82;54.20
55466;BME280;41329;41.594;23.810;2023-09-12T04:05:56;95520.69;;;13.75;54.16
55466;BME280;41329;41.594;23.810;2023-09-12T04:08:21;95527.00;;;13.72;54.37
55466;BME280;41329;41.594;23.810;2023-09-12T04:10:46;95542.50;;;13.70;54.83
55466;BME280;41329;41.594;23.810;2023-09-12T04:13:12;95534.50;;;13.65;55.06
55466;BME280;41329;41.594;23.810;2023-09-12T04:15:37;95534.91;;;13.67;55.26
55466;BME280;41329;41.594;23.810;2023-09-12T04:18:04;95539.69;;;13.70;55.02
55466;BME280;41329;41.594;23.810;2023-09-12T04:20:29;95538.13;;;13.72;54.56
55466;BME280;41329;41.594;23.810;2023-09-12T04:22:54;95544.06;;;13.71;54.70
55466;BME280;41329;41.594;23.810;2023-09-12T04:25:20;95527.31;;;13.60;55.41
55466;BME280;41329;41.594;23.810;2023-09-12T04:27:45;95532.53;;;13.65;55.64
55466;BME280;41329;41.594;23.810;2023-09-12T04:30:11;95544.88;;;13.71;56.16
55466;BME280;41329;41.594;23.810;2023-09-12T04:32:37;95541.75;;;13.76;55.92
55466;BME280;41329;41.594;23.810;2023-09-12T04:35:02;95534.59;;;13.79;56.32
55466;BME280;41329;41.594;23.810;2023-09-12T04:37:28;95533.84;;;13.85;56.03
55466;BME280;41329;41.594;23.810;2023-09-12T04:39:54;95531.06;;;13.82;55.72
55466;BME280;41329;41.594;23.810;2023-09-12T04:42:19;95529.84;;;13.83;55.25
55466;BME280;41329;41.594;23.810;2023-09-12T04:44:45;95539.44;;;13.89;55.67
55466;BME280;41329;41.594;23.810;2023-09-12T04:47:10;95541.06;;;13.93;55.68
55466;BME280;41329;41.594;23.810;2023-09-12T04:49:36;95541.88;;;13.97;55.78
55466;BME280;41329;41.594;23.810;2023-09-12T04:52:01;95545.47;;;14.01;55.54
55466;BME280;41329;41.594;23.810;2023-09-12T04:54:27;95529.94;;;13.93;55.76
55466;BME280;41329;41.594;23.810;2023-09-12T04:56:52;95553.81;;;14.01;55.65
55466;BME280;41329;41.594;23.810;2023-09-12T04:59:18;95548.69;;;14.03;55.35
55466;BME280;41329;41.594;23.810;2023-09-12T05:01:43;95552.28;;;14.07;55.63
55466;BME280;41329;41.594;23.810;2023-09-12T05:04:09;95549.91;;;14.09;56.21
55466;BME280;41329;41.594;23.810;2023-09-12T05:06:35;95557.09;;;14.17;55.32
55466;BME280;41329;41.594;23.810;2023-09-12T05:09:00;95559.13;;;14.20;55.08
55466;BME280;41329;41.594;23.810;2023-09-12T05:11:26;95553.91;;;14.15;55.14
55466;BME280;41329;41.594;23.810;2023-09-12T05:13:51;95560.28;;;14.19;55.56
55466;BME280;41329;41.594;23.810;2023-09-12T05:16:17;95569.03;;;14.18;55.77
55466;BME280;41329;41.594;23.810;2023-09-12T05:18:42;95563.06;;;14.19;56.24
55466;BME280;41329;41.594;23.810;2023-09-12T05:21:08;95571.09;;;14.24;56.30
55466;BME280;41329;41.594;23.810;2023-09-12T05:23:34;95551.94;;;14.16;56.82
55466;BME280;41329;41.594;23.810;2023-09-12T05:25:59;95573.84;;;14.21;56.71
55466;BME280;41329;41.594;23.810;2023-09-12T05:28:24;95553.13;;;14.15;57.55
55466;BME280;41329;41.594;23.810;2023-09-12T05:30:50;95575.47;;;14.25;57.81
55466;BME280;41329;41.594;23.810;2023-09-12T05:33:15;95571.13;;;14.31;58.15
55466;BME280;41329;41.594;23.810;2023-09-12T05:35:41;95577.16;;;14.44;58.34
55466;BME280;41329;41.594;23.810;2023-09-12T05:38:06;95577.59;;;14.49;58.13
55466;BME280;41329;41.594;23.810;2023-09-12T05:40:31;95573.22;;;14.55;57.73
55466;BME280;41329;41.594;23.810;2023-09-12T05:42:57;95568.44;;;14.45;58.74
55466;BME280;41329;41.594;23.810;2023-09-12T05:45:22;95566.06;;;14.54;58.81
55466;BME280;41329;41.594;23.810;2023-09-12T05:47:48;95567.72;;;14.66;58.73
55466;BME280;41329;41.594;23.810;2023-09-12T05:50:15;95552.19;;;14.68;58.48
55466;BME280;41329;41.594;23.810;2023-09-12T05:52:41;95566.59;;;14.88;58.26
55466;BME280;41329;41.594;23.810;2023-09-12T05:55:08;95560.63;;;14.89;58.24
55466;BME280;41329;41.594;23.810;2023-09-12T05:57:33;95555.06;;;14.86;58.17
55466;BME280;41329;41.594;23.810;2023-09-12T05:59:59;95559.84;;;14.92;58.46
55466;BME280;41329;41.594;23.810;2023-09-12T06:02:25;95553.44;;;14.78;58.23
55466;BME280;41329;41.594;23.810;2023-09-12T06:04:51;95555.44;;;14.88;58.09
55466;BME280;41329;41.594;23.810;2023-09-12T06:07:16;95569.44;;;15.02;57.92
55466;BME280;41329;41.594;23.810;2023-09-12T06:09:42;95555.09;;;15.07;57.84
55466;BME280;41329;41.594;23.810;2023-09-12T06:12:07;95565.91;;;15.29;57.35
55466;BME280;41329;41.594;23.810;2023-09-12T06:14:32;95546.78;;;15.17;57.38
55466;BME280;41329;41.594;23.810;2023-09-12T06:16:58;95554.31;;;15.20;57.01
55466;BME280;41329;41.594;23.810;2023-09-12T06:19:24;95550.31;;;15.07;56.64
55466;BME280;41329;41.594;23.810;2023-09-12T06:21:49;95561.50;;;15.21;56.59
55466;BME280;41329;41.594;23.810;2023-09-12T06:24:16;95569.09;;;15.35;57.04
55466;BME280;41329;41.594;23.810;2023-09-12T06:26:42;95579.88;;;15.36;57.36
55466;BME280;41329;41.594;23.810;2023-09-12T06:29:08;95573.91;;;15.52;56.93
55466;BME280;41329;41.594;23.810;2023-09-12T06:31:34;95568.75;;;15.64;56.76
55466;BME280;41329;41.594;23.810;2023-09-12T06:34:00;95568.75;;;15.64;56.33
55466;BME280;41329;41.594;23.810;2023-09-12T06:36:26;95576.72;;;15.80;55.62
55466;BME280;41329;41.594;23.810;2023-09-12T06:38:56;95576.69;;;15.90;55.68
55466;BME280;41329;41.594;23.810;2023-09-12T06:41:21;95565.16;;;15.99;55.75
55466;BME280;41329;41.594;23.810;2023-09-12T06:43:47;95568.69;;;16.10;55.57
55466;BME280;41329;41.594;23.810;2023-09-12T06:46:12;95560.31;;;16.20;55.70
55466;BME280;41329;41.594;23.810;2023-09-12T06:48:38;95571.47;;;16.27;54.82
55466;BME280;41329;41.594;23.810;2023-09-12T06:51:08;95573.03;;;16.49;54.80
55466;BME280;41329;41.594;23.810;2023-09-12T06:53:35;95567.81;;;16.58;54.06
55466;BME280;41329;41.594;23.810;2023-09-12T06:56:02;95538.75;;;16.42;53.84
55466;BME280;41329;41.594;23.810;2023-09-12T06:58:28;95584.88;;;16.85;54.10
55466;BME280;41329;41.594;23.810;2023-09-12T07:00:53;95576.47;;;16.92;53.62
55466;BME280;41329;41.594;23.810;2023-09-12T07:03:18;95569.66;;;17.00;53.01
55466;BME280;41329;41.594;23.810;2023-09-12T07:05:44;95579.13;;;17.16;52.43
55466;BME280;41329;41.594;23.810;2023-09-12T07:08:10;95575.91;;;17.21;52.49
55466;BME280;41329;41.594;23.810;2023-09-12T07:10:35;95565.06;;;17.34;52.53
55466;BME280;41329;41.594;23.810;2023-09-12T07:13:01;95570.47;;;17.65;52.13
55466;BME280;41329;41.594;23.810;2023-09-12T07:15:27;95575.53;;;17.81;51.46
55466;BME280;41329;41.594;23.810;2023-09-12T07:17:53;95583.81;;;17.95;50.62
55466;BME280;41329;41.594;23.810;2023-09-12T07:20:18;95576.47;;;18.08;50.22
55466;BME280;41329;41.594;23.810;2023-09-12T07:22:45;95581.94;;;18.26;49.97
55466;BME280;41329;41.594;23.810;2023-09-12T07:25:11;95571.03;;;18.38;49.34
55466;BME280;41329;41.594;23.810;2023-09-12T07:27:37;95574.06;;;18.54;49.26
55466;BME280;41329;41.594;23.810;2023-09-12T07:30:06;95575.31;;;18.83;49.99
55466;BME280;41329;41.594;23.810;2023-09-12T07:32:32;95572.31;;;19.01;48.32
55466;BME280;41329;41.594;23.810;2023-09-12T07:34:57;95568.16;;;19.12;47.14
55466;BME280;41329;41.594;23.810;2023-09-12T07:37:23;95546.94;;;19.11;47.44
55466;BME280;41329;41.594;23.810;2023-09-12T07:39:48;95570.13;;;19.45;47.80
55466;BME280;41329;41.594;23.810;2023-09-12T07:42:13;95562.22;;;19.63;46.79
55466;BME280;41329;41.594;23.810;2023-09-12T07:44:39;95545.03;;;19.61;46.09
55466;BME280;41329;41.594;23.810;2023-09-12T07:47:04;95555.38;;;19.91;45.77
55466;BME280;41329;41.594;23.810;2023-09-12T07:49:30;95543.94;;;20.01;46.17
55466;BME280;41329;41.594;23.810;2023-09-12T07:51:56;95551.63;;;20.24;45.36
55466;BME280;41329;41.594;23.810;2023-09-12T07:54:22;95548.81;;;20.47;44.68
55466;BME280;41329;41.594;23.810;2023-09-12T07:56:48;95542.16;;;20.57;43.43
55466;BME280;41329;41.594;23.810;2023-09-12T07:59:13;95538.50;;;20.60;43.68
55466;BME280;41329;41.594;23.810;2023-09-12T08:01:40;95542.91;;;20.80;43.12
55466;BME280;41329;41.594;23.810;2023-09-12T08:04:05;95557.00;;;21.00;43.02
55466;BME280;41329;41.594;23.810;2023-09-12T08:06:32;95543.16;;;21.09;41.52
55466;BME280;41329;41.594;23.810;2023-09-12T08:08:57;95544.84;;;21.22;41.92
55466;BME280;41329;41.594;23.810;2023-09-12T08:11:22;95540.69;;;21.11;40.89
55466;BME280;41329;41.594;23.810;2023-09-12T08:13:49;95534.97;;;21.14;40.46
55466;BME280;41329;41.594;23.810;2023-09-12T08:16:15;95548.34;;;21.30;40.73
55466;BME280;41329;41.594;23.810;2023-09-12T08:18:41;95541.22;;;21.41;40.07
55466;BME280;41329;41.594;23.810;2023-09-12T08:21:06;95529.34;;;21.50;40.28
55466;BME280;41329;41.594;23.810;2023-09-12T08:23:31;95542.97;;;21.71;40.48
55466;BME280;41329;41.594;23.810;2023-09-12T08:25:57;95544.06;;;21.77;39.40
55466;BME280;41329;41.594;23.810;2023-09-12T08:28:22;95531.91;;;21.96;39.22
55466;BME280;41329;41.594;23.810;2023-09-12T08:30:47;95524.59;;;21.98;38.74
55466;BME280;41329;41.594;23.810;2023-09-12T08:33:13;95520.72;;;22.08;39.32
55466;BME280;41329;41.594;23.810;2023-09-12T08:35:38;95523.16;;;22.38;39.81
55466;BME280;41329;41.594;23.810;2023-09-12T08:38:04;95517.56;;;22.67;38.41
55466;BME280;41329;41.594;23.810;2023-09-12T08:40:29;95506.38;;;22.63;35.88
55466;BME280;41329;41.594;23.810;2023-09-12T08:42:57;95517.19;;;22.81;37.02
55466;BME280;41329;41.594;23.810;2023-09-12T08:45:23;95513.50;;;23.09;37.44
55466;BME280;41329;41.594;23.810;2023-09-12T08:47:53;95509.44;;;23.10;37.44
55466;BME280;41329;41.594;23.810;2023-09-12T08:50:20;95509.97;;;23.21;36.64
55466;BME280;41329;41.594;23.810;2023-09-12T08:52:48;95507.22;;;23.18;36.71
55466;BME280;41329;41.594;23.810;2023-09-12T08:55:14;95497.78;;;23.24;37.24
55466;BME280;41329;41.594;23.810;2023-09-12T08:57:41;95502.22;;;23.50;37.70
55466;BME280;41329;41.594;23.810;2023-09-12T09:00:07;95506.72;;;23.60;36.72
55466;BME280;41329;41.594;23.810;2023-09-12T09:02:42;95495.88;;;23.71;36.99
55466;BME280;41329;41.594;23.810;2023-09-12T09:05:10;95499.72;;;24.02;37.90
55466;BME280;41329;41.594;23.810;2023-09-12T09:07:36;95499.63;;;24.06;35.21
55466;BME280;41329;41.594;23.810;2023-09-12T09:10:04;95500.25;;;24.22;35.46
55466;BME280;41329;41.594;23.810;2023-09-12T09:12:34;95498.41;;;24.41;34.60
55466;BME280;41329;41.594;23.810;2023-09-12T09:15:20;95498.19;;;24.69;34.19
55466;BME280;41329;41.594;23.810;2023-09-12T09:17:46;95482.47;;;24.68;32.67
55466;BME280;41329;41.594;23.810;2023-09-12T09:20:25;95496.03;;;24.73;33.38
55466;BME280;41329;41.594;23.810;2023-09-12T09:25:23;95493.53;;;25.18;34.72
55466;BME280;41329;41.594;23.810;2023-09-12T09:27:48;95480.81;;;25.44;33.01
55466;BME280;41329;41.594;23.810;2023-09-12T09:30:13;95480.41;;;25.55;32.96
55466;BME280;41329;41.594;23.810;2023-09-12T09:32:39;95488.81;;;25.67;32.55
55466;BME280;41329;41.594;23.810;2023-09-12T09:35:05;95474.28;;;25.56;31.72
55466;BME280;41329;41.594;23.810;2023-09-12T09:37:30;95487.94;;;25.88;33.38
55466;BME280;41329;41.594;23.810;2023-09-12T09:39:56;95481.16;;;26.25;33.52
55466;BME280;41329;41.594;23.810;2023-09-12T09:42:22;95459.41;;;26.40;31.09
55466;BME280;41329;41.594;23.810;2023-09-12T09:44:48;95470.31;;;26.51;31.74
55466;BME280;41329;41.594;23.810;2023-09-12T09:47:14;95472.56;;;26.83;31.67
55466;BME280;41329;41.594;23.810;2023-09-12T09:49:39;95451.41;;;26.84;29.65
55466;BME280;41329;41.594;23.810;2023-09-12T09:52:05;95464.19;;;27.06;29.25
55466;BME280;41329;41.594;23.810;2023-09-12T09:54:31;95461.84;;;26.87;28.66
55466;BME280;41329;41.594;23.810;2023-09-12T09:56:57;95440.06;;;26.75;29.03
55466;BME280;41329;41.594;23.810;2023-09-12T09:59:24;95450.13;;;26.94;29.22
55466;BME280;41329;41.594;23.810;2023-09-12T10:01:51;95452.81;;;27.06;27.37
55466;BME280;41329;41.594;23.810;2023-09-12T10:04:18;95447.59;;;27.05;27.76
55466;BME280;41329;41.594;23.810;2023-09-12T10:06:46;95446.94;;;27.19;27.81
55466;BME280;41329;41.594;23.810;2023-09-12T10:09:15;95446.03;;;27.13;27.75
55466;BME280;41329;41.594;23.810;2023-09-12T10:11:42;95429.47;;;27.02;28.16
55466;BME280;41329;41.594;23.810;2023-09-12T10:14:08;95433.69;;;27.34;28.54
55466;BME280;41329;41.594;23.810;2023-09-12T10:16:36;95423.63;;;27.65;27.30
55466;BME280;41329;41.594;23.810;2023-09-12T10:21:33;95430.03;;;27.84;26.19
55466;BME280;41329;41.594;23.810;2023-09-12T10:24:02;95422.13;;;27.88;26.75
55466;BME280;41329;41.594;23.810;2023-09-12T10:26:28;95408.75;;;28.03;26.54
55466;BME280;41329;41.594;23.810;2023-09-12T10:28:56;95419.91;;;28.39;26.84
55466;BME280;41329;41.594;23.810;2023-09-12T10:31:24;95417.91;;;28.54;24.99
55466;BME280;41329;41.594;23.810;2023-09-12T10:33:50;95408.41;;;28.57;27.24
55466;BME280;41329;41.594;23.810;2023-09-12T10:36:17;95401.47;;;28.73;24.34
55466;BME280;41329;41.594;23.810;2023-09-12T10:38:44;95411.28;;;28.72;25.04
55466;BME280;41329;41.594;23.810;2023-09-12T10:41:12;95391.84;;;28.85;24.12
55466;BME280;41329;41.594;23.810;2023-09-12T10:43:43;95405.25;;;28.93;24.87
55466;BME280;41329;41.594;23.810;2023-09-12T10:46:12;95398.69;;;29.02;23.93
55466;BME280;41329;41.594;23.810;2023-09-12T10:48:38;95406.16;;;29.28;24.63
55466;BME280;41329;41.594;23.810;2023-09-12T10:51:06;95395.63;;;29.49;23.93
55466;BME280;41329;41.594;23.810;2023-09-12T10:53:32;95397.59;;;29.72;23.55
55466;BME280;41329;41.594;23.810;2023-09-12T10:56:22;95397.78;;;29.83;22.91
55466;BME280;41329;41.594;23.810;2023-09-12T11:01:32;95401.16;;;30.36;24.29
55466;BME280;41329;41.594;23.810;2023-09-12T11:03:58;95384.75;;;30.51;23.68
55466;BME280;41329;41.594;23.810;2023-09-12T11:06:30;95379.31;;;30.53;22.79
55466;BME280;41329;41.594;23.810;2023-09-12T11:09:23;95372.75;;;30.47;21.62
55466;BME280;41329;41.594;23.810;2023-09-12T11:12:03;95363.47;;;30.32;21.09
55466;BME280;41329;41.594;23.810;2023-09-12T11:14:29;95369.00;;;30.61;22.42
55466;BME280;41329;41.594;23.810;2023-09-12T11:19:52;95359.69;;;30.40;21.84
55466;BME280;41329;41.594;23.810;2023-09-12T11:22:28;95357.09;;;30.22;21.36
55466;BME280;41329;41.594;23.810;2023-09-12T11:24:56;95366.03;;;30.30;21.64
55466;BME280;41329;41.594;23.810;2023-09-12T11:27:24;95345.91;;;30.39;22.14
55466;BME280;41329;41.594;23.810;2023-09-12T11:29:50;95360.19;;;30.59;21.30
55466;BME280;41329;41.594;23.810;2023-09-12T11:32:28;95346.91;;;30.76;21.68
55466;BME280;41329;41.594;23.810;2023-09-12T11:34:55;95339.16;;;30.62;21.13
55466;BME280;41329;41.594;23.810;2023-09-12T11:37:25;95345.34;;;30.55;21.09
55466;BME280;41329;41.594;23.810;2023-09-12T11:39:51;95342.47;;;30.55;21.55
55466;BME280;41329;41.594;23.810;2023-09-12T11:42:18;95315.16;;;30.48;21.17
55466;BME280;41329;41.594;23.810;2023-09-12T11:44:43;95328.91;;;30.70;21.21
55466;BME280;41329;41.594;23.810;2023-09-12T11:47:12;95332.31;;;30.74;20.50
55466;BME280;41329;41.594;23.810;2023-09-12T11:49:39;95327.97;;;30.78;20.79
55466;BME280;41329;41.594;23.810;2023-09-12T11:52:12;95323.53;;;31.03;21.53
55466;BME280;41329;41.594;23.810;2023-09-12T11:54:39;95321.63;;;30.94;20.21
55466;BME280;41329;41.594;23.810;2023-09-12T11:57:07;95323.53;;;31.03;21.89
55466;BME280;41329;41.594;23.810;2023-09-12T11:59:36;95306.09;;;31.26;21.33
55466;BME280;41329;41.594;23.810;2023-09-12T12:02:06;95322.31;;;31.71;20.66
55466;BME280;41329;41.594;23.810;2023-09-12T12:04:32;95305.94;;;31.72;20.26
55466;BME280;41329;41.594;23.810;2023-09-12T12:06:57;95300.06;;;31.92;19.70
55466;BME280;41329;41.594;23.810;2023-09-12T12:09:23;95314.97;;;32.01;19.64
55466;BME280;41329;41.594;23.810;2023-09-12T12:11:48;95292.00;;;31.85;19.04
55466;BME280;41329;41.594;23.810;2023-09-12T12:14:16;95311.38;;;31.70;19.00
55466;BME280;41329;41.594;23.810;2023-09-12T12:16:43;95306.69;;;31.72;19.63
55466;BME280;41329;41.594;23.810;2023-09-12T12:19:12;95303.66;;;31.76;20.26
55466;BME280;41329;41.594;23.810;2023-09-12T12:21:40;95298.00;;;31.56;19.41
55466;BME280;41329;41.594;23.810;2023-09-12T12:24:09;95281.44;;;31.65;20.33
55466;BME280;41329;41.594;23.810;2023-09-12T12:26:35;95297.16;;;31.81;20.15
55466;BME280;41329;41.594;23.810;2023-09-12T12:29:01;95289.75;;;32.05;20.22
55466;BME280;41329;41.594;23.810;2023-09-12T12:31:27;95272.84;;;32.13;19.98
55466;BME280;41329;41.594;23.810;2023-09-12T12:33:53;95286.56;;;32.46;19.38
55466;BME280;41329;41.594;23.810;2023-09-12T12:36:19;95285.50;;;32.49;19.22
55466;BME280;41329;41.594;23.810;2023-09-12T12:38:47;95279.19;;;32.28;18.55
55466;BME280;41329;41.594;23.810;2023-09-12T12:41:14;95265.88;;;32.25;20.04
55466;BME280;41329;41.594;23.810;2023-09-12T12:43:41;95276.16;;;32.59;20.25
55466;BME280;41329;41.594;23.810;2023-09-12T12:46:10;95274.13;;;32.76;19.65
55466;BME280;41329;41.594;23.810;2023-09-12T12:48:37;95263.94;;;32.70;18.95
55466;BME280;41329;41.594;23.810;2023-09-12T12:51:16;95277.91;;;32.29;19.19
55466;BME280;41329;41.594;23.810;2023-09-12T12:53:44;95279.91;;;32.17;19.59
55466;BME280;41329;41.594;23.810;2023-09-12T12:56:15;95267.09;;;32.02;19.49
55466;BME280;41329;41.594;23.810;2023-09-12T12:58:51;95267.72;;;32.28;20.37
55466;BME280;41329;41.594;23.810;2023-09-12T13:01:17;95266.22;;;32.38;19.46